createdAt,value
2018-10-06T10:40:48.258Z,94.50
2018-10-06T10:43:17.022Z,93.50
2018-10-06T10:45:45.722Z,93.70
2018-10-06T10:48:14.467Z,92.90
2018-10-06T10:50:43.228Z,94.30
2018-10-06T10:53:11.963Z,93.10
2018-10-06T10:55:40.774Z,92.60
2018-10-06T10:58:09.433Z,92.80
2018-10-06T11:00:38.146Z,92.80
2018-10-06T11:03:06.855Z,92.90
2018-10-06T11:05:35.565Z,93.70
2018-10-06T11:08:04.300Z,94.20
2018-10-06T11:10:33.027Z,94.50
2018-10-06T11:13:01.708Z,95.00
2018-10-06T11:15:30.444Z,92.80
2018-10-06T11:17:59.133Z,93.20
2018-10-06T11:20:27.903Z,91.50
2018-10-06T11:22:56.822Z,91.70
2018-10-06T11:25:25.559Z,92.10
2018-10-06T11:27:54.280Z,92.50
2018-10-06T11:30:22.983Z,91.50
2018-10-06T11:32:51.749Z,91.30
2018-10-06T11:35:20.590Z,91.90
2018-10-06T11:37:49.361Z,91.90
2018-10-06T11:40:18.042Z,90.80
2018-10-06T11:42:46.786Z,91.20
2018-10-06T11:45:15.485Z,91.90
2018-10-06T11:47:44.210Z,91.70
2018-10-06T11:50:12.982Z,91.60
2018-10-06T11:52:41.770Z,92.80
2018-10-06T11:55:10.571Z,91.90
2018-10-06T11:57:39.255Z,91.40
2018-10-06T12:00:08.627Z,91.60
2018-10-06T12:02:37.212Z,91.40
2018-10-06T12:05:06.003Z,92.50
2018-10-06T12:07:34.754Z,90.40
2018-10-06T12:10:03.616Z,91.30
2018-10-06T12:12:32.377Z,91.10
2018-10-06T12:15:01.045Z,90.40
2018-10-06T12:17:29.766Z,90.20
2018-10-06T12:19:58.553Z,91.50
2018-10-06T12:22:27.473Z,90.30
2018-10-06T12:24:56.303Z,90.50
2018-10-06T12:27:25.206Z,90.00
2018-10-06T12:29:53.929Z,89.10
2018-10-06T12:32:22.707Z,90.30
2018-10-06T12:34:51.569Z,87.80
2018-10-06T12:37:20.446Z,90.10
2018-10-06T12:39:49.149Z,90.20
2018-10-06T12:42:17.982Z,88.40
2018-10-06T12:44:46.804Z,85.90
2018-10-06T12:47:15.483Z,89.70
2018-10-06T12:49:44.256Z,85.20
2018-10-06T12:52:12.995Z,84.30
2018-10-06T12:54:41.693Z,84.10
2018-10-06T12:57:10.371Z,85.30
2018-10-06T12:59:39.434Z,86.00
2018-10-06T13:02:08.113Z,87.10
2018-10-06T13:04:37.255Z,89.00
2018-10-06T13:07:06.101Z,87.80
2018-10-06T13:09:34.956Z,86.20
2018-10-06T13:12:03.727Z,89.80
2018-10-06T13:14:32.488Z,90.10
2018-10-06T13:17:01.205Z,84.10
2018-10-06T13:19:30.074Z,85.00
2018-10-06T13:21:58.812Z,84.50
2018-10-06T13:24:27.512Z,86.80
2018-10-06T13:49:49.653Z,85.20
2018-10-06T13:52:18.271Z,82.60
2018-10-06T13:54:46.903Z,83.40
2018-10-06T13:57:15.642Z,84.20
2018-10-06T13:59:44.339Z,84.10
2018-10-06T14:02:13.114Z,85.20
2018-10-06T14:04:41.778Z,84.80
2018-10-06T14:07:10.439Z,87.00
2018-10-06T14:09:39.125Z,87.00
2018-10-06T14:12:07.833Z,85.00
2018-10-06T14:14:36.506Z,87.00
2018-10-06T14:17:05.222Z,86.60
2018-10-06T14:19:33.871Z,88.00
2018-10-06T14:22:02.572Z,90.30
2018-10-06T14:24:31.217Z,91.10
2018-10-06T14:26:59.923Z,91.20
2018-10-06T14:29:28.573Z,92.30
2018-10-06T14:31:57.250Z,92.40
2018-10-06T14:34:25.923Z,92.00
2018-10-06T14:36:54.597Z,91.90
2018-10-06T14:39:23.299Z,92.40
2018-10-06T14:41:52.014Z,92.70
2018-10-06T14:44:20.766Z,91.10
2018-10-06T14:46:49.473Z,91.10
2018-10-06T14:49:18.280Z,91.50
2018-10-06T14:51:47.007Z,90.60
2018-10-06T14:54:15.623Z,90.00
2018-10-06T14:56:44.610Z,90.70
2018-10-06T14:59:13.322Z,90.30
2018-10-06T15:01:42.159Z,90.20
2018-10-06T15:04:10.863Z,91.20
2018-10-06T15:06:39.476Z,92.20
2018-10-06T15:09:09.493Z,92.60
2018-10-06T15:11:38.207Z,90.40
2018-10-06T15:14:07.100Z,91.40
2018-10-06T15:16:36.085Z,92.00
2018-10-06T15:19:04.813Z,92.30
2018-10-06T15:21:33.597Z,92.60
2018-10-06T15:24:02.180Z,92.40
2018-10-06T15:26:30.877Z,93.00
2018-10-06T15:28:59.688Z,94.20
2018-10-06T15:31:28.790Z,94.30
2018-10-06T15:33:57.413Z,94.60
2018-10-06T15:36:26.124Z,94.10
2018-10-06T15:38:54.806Z,95.20
2018-10-06T15:41:23.447Z,96.20
2018-10-06T15:43:52.161Z,95.90
2018-10-06T15:46:20.794Z,97.10
2018-10-06T15:48:49.410Z,96.40
2018-10-06T15:51:18.055Z,95.60
2018-10-06T15:53:46.717Z,95.50
2018-10-06T15:56:15.419Z,96.60
2018-10-06T15:58:44.046Z,98.10
2018-10-06T16:01:12.749Z,99.10
2018-10-06T16:03:41.403Z,98.60
2018-10-06T16:06:10.151Z,99.20
2018-10-06T16:08:38.909Z,99.40
2018-10-06T16:11:07.588Z,99.90
2018-10-06T16:13:36.239Z,99.90
2018-10-06T16:16:04.895Z,99.90
2018-10-06T16:18:33.578Z,99.90
2018-10-06T16:21:02.270Z,99.90
2018-10-06T16:23:30.879Z,99.90
2018-10-06T16:25:59.536Z,99.90
2018-10-06T16:28:28.563Z,99.90
2018-10-06T16:30:57.692Z,99.90
2018-10-06T16:33:26.434Z,99.90
2018-10-06T16:35:55.070Z,99.90
2018-10-06T16:38:23.749Z,99.90
2018-10-06T16:40:52.426Z,99.90
2018-10-06T16:43:21.127Z,99.90
2018-10-06T16:45:49.775Z,99.90
2018-10-06T16:48:18.394Z,99.90
2018-10-06T16:50:47.094Z,99.90
2018-10-06T16:53:15.711Z,99.90
2018-10-06T16:55:44.387Z,99.90
2018-10-06T16:58:13.082Z,99.90
2018-10-06T17:00:41.739Z,99.90
2018-10-06T17:03:10.427Z,99.90
2018-10-06T17:05:39.100Z,99.90
2018-10-06T17:08:07.738Z,99.90
2018-10-06T17:10:36.433Z,99.90
2018-10-06T17:13:05.221Z,99.90
2018-10-06T17:15:33.863Z,99.90
2018-10-06T17:18:02.565Z,99.90
2018-10-06T17:20:31.251Z,99.90
2018-10-06T17:22:59.945Z,99.90
2018-10-06T17:25:28.612Z,99.90
2018-10-06T17:27:57.263Z,99.90
2018-10-06T17:30:26.021Z,99.90
2018-10-06T17:32:54.681Z,99.90
2018-10-06T17:35:23.323Z,99.90
2018-10-06T17:37:52.051Z,99.90
2018-10-06T17:40:20.736Z,99.90
2018-10-06T17:42:49.419Z,99.90
2018-10-06T17:45:18.056Z,99.90
2018-10-06T17:47:46.771Z,99.90
2018-10-06T17:50:15.562Z,99.90
2018-10-06T17:52:44.146Z,99.90
2018-10-06T17:55:12.833Z,99.90
2018-10-06T17:57:41.532Z,99.90
2018-10-06T18:00:10.254Z,99.90
2018-10-06T18:02:38.984Z,99.90
2018-10-06T18:05:07.650Z,99.90
2018-10-06T18:07:36.290Z,99.90
2018-10-06T18:10:04.994Z,99.90
2018-10-06T18:12:33.815Z,99.90
2018-10-06T18:15:02.516Z,99.90
2018-10-06T18:17:31.545Z,99.90
2018-10-06T18:20:00.317Z,99.90
2018-10-06T18:22:29.477Z,99.90
2018-10-06T18:24:58.141Z,99.90
2018-10-06T18:27:26.821Z,99.90
2018-10-06T18:29:55.510Z,99.90
2018-10-06T18:32:24.242Z,99.90
2018-10-06T18:34:52.849Z,99.90
2018-10-06T18:37:21.585Z,99.90
2018-10-06T18:39:50.328Z,99.90
2018-10-06T18:42:18.936Z,99.90
2018-10-06T18:44:47.614Z,99.90
2018-10-06T18:47:16.307Z,99.90
2018-10-06T18:49:45.021Z,99.90
2018-10-06T18:52:13.688Z,99.90
2018-10-06T18:54:42.356Z,99.90
2018-10-06T18:57:11.112Z,99.90
2018-10-06T18:59:39.771Z,99.90
2018-10-06T19:02:08.639Z,99.90
2018-10-06T19:04:37.279Z,99.90
2018-10-06T19:07:06.008Z,99.90
2018-10-06T19:09:34.717Z,99.90
2018-10-06T19:12:03.448Z,99.90
2018-10-06T19:14:32.166Z,99.90
2018-10-06T19:17:00.838Z,99.90
2018-10-06T19:19:29.466Z,99.90
2018-10-06T19:21:59.023Z,99.90
2018-10-06T19:24:27.660Z,99.90
2018-10-06T19:26:57.475Z,99.90
2018-10-06T19:29:26.516Z,99.90
2018-10-06T19:31:55.535Z,99.90
2018-10-06T19:34:24.199Z,99.90
2018-10-06T19:36:52.848Z,99.90
2018-10-06T19:39:21.486Z,99.90
2018-10-06T19:41:50.154Z,99.90
2018-10-06T19:44:18.784Z,99.90
2018-10-06T19:46:48.190Z,99.90
2018-10-06T19:49:16.962Z,99.90
2018-10-06T19:51:46.109Z,99.90
2018-10-06T19:54:15.086Z,99.90
2018-10-06T19:56:43.758Z,99.90
2018-10-06T19:59:13.312Z,99.90
2018-10-06T20:01:41.981Z,99.90
2018-10-06T20:04:11.109Z,99.90
2018-10-06T20:06:39.817Z,99.90
2018-10-06T20:09:09.875Z,99.90
2018-10-06T20:11:39.065Z,99.90
2018-10-06T20:14:08.060Z,99.90
2018-10-06T20:16:36.745Z,99.90
2018-10-06T20:19:05.485Z,99.90
2018-10-06T20:21:34.723Z,99.90
2018-10-06T20:24:03.415Z,99.90
2018-10-06T20:26:32.095Z,99.90
2018-10-06T20:29:00.858Z,99.90
2018-10-06T20:31:29.677Z,99.90
2018-10-06T20:33:58.479Z,99.90
2018-10-06T20:36:27.288Z,99.90
2018-10-06T20:38:56.053Z,99.90
2018-10-06T20:41:24.964Z,99.90
2018-10-06T20:43:54.664Z,99.90
2018-10-06T20:46:23.482Z,99.90
2018-10-06T20:48:52.750Z,99.90
2018-10-06T20:51:21.864Z,99.90
2018-10-06T20:53:50.729Z,99.90
2018-10-06T20:56:20.184Z,99.90
2018-10-06T20:58:49.012Z,99.90
2018-10-06T21:01:18.176Z,99.90
2018-10-06T21:03:46.964Z,99.90
2018-10-06T21:06:15.808Z,99.90
2018-10-06T21:08:44.563Z,99.90
2018-10-06T21:11:13.467Z,99.90
2018-10-06T21:13:42.273Z,99.90
2018-10-06T21:16:11.046Z,99.90
2018-10-06T21:18:39.869Z,99.90
2018-10-06T21:21:09.288Z,99.90
2018-10-06T21:23:39.242Z,99.90
2018-10-06T21:26:08.425Z,99.90
2018-10-06T21:28:37.269Z,99.90
2018-10-06T21:31:06.135Z,99.90
2018-10-06T21:33:35.286Z,99.90
2018-10-06T21:36:04.164Z,99.90
2018-10-06T21:38:32.936Z,99.90
2018-10-06T21:41:01.756Z,99.90
2018-10-06T21:43:30.521Z,99.90
2018-10-06T21:45:59.482Z,99.90
2018-10-06T21:48:28.256Z,99.90
2018-10-06T21:50:57.186Z,99.90
2018-10-06T21:53:25.891Z,99.90
2018-10-06T21:55:54.740Z,99.90
2018-10-06T21:58:23.513Z,99.90
2018-10-06T22:00:57.477Z,99.90
2018-10-06T22:03:26.485Z,99.90
2018-10-06T22:05:55.281Z,99.90
2018-10-06T22:08:24.245Z,99.90
2018-10-06T22:10:53.055Z,99.90
2018-10-06T22:13:21.862Z,99.90
2018-10-06T22:15:50.698Z,99.90
2018-10-06T22:18:19.460Z,99.90
2018-10-06T22:20:48.365Z,99.90
2018-10-06T22:23:17.277Z,99.90
2018-10-06T22:25:46.589Z,99.90
2018-10-06T22:28:15.645Z,99.90
2018-10-06T22:30:44.455Z,99.90
2018-10-06T22:33:13.259Z,99.90
2018-10-06T22:35:42.002Z,99.90
2018-10-06T22:38:10.798Z,99.90
2018-10-06T22:40:39.640Z,99.90
2018-10-06T22:43:08.449Z,99.90
2018-10-06T22:45:37.269Z,99.90
2018-10-06T22:48:06.167Z,99.90
2018-10-06T22:50:35.026Z,99.90
2018-10-06T22:53:03.820Z,99.90
2018-10-06T22:55:32.592Z,99.90
2018-10-06T22:58:01.395Z,99.90
2018-10-06T23:00:30.159Z,99.90
2018-10-06T23:02:58.945Z,99.90
2018-10-06T23:05:27.720Z,99.90
2018-10-06T23:07:56.506Z,99.90
2018-10-06T23:10:25.256Z,99.90
2018-10-06T23:12:54.033Z,99.90
2018-10-06T23:15:22.839Z,99.90
2018-10-06T23:17:51.614Z,99.90
2018-10-06T23:20:20.357Z,99.90
2018-10-06T23:22:49.185Z,99.90
2018-10-06T23:25:17.964Z,99.90
2018-10-06T23:27:46.733Z,99.90
2018-10-06T23:30:15.495Z,99.90
2018-10-06T23:32:44.306Z,99.90
2018-10-06T23:35:13.132Z,99.90
2018-10-06T23:37:41.871Z,99.90
2018-10-06T23:40:10.677Z,99.90
2018-10-06T23:42:39.460Z,99.90
2018-10-06T23:45:08.469Z,99.90
2018-10-06T23:47:37.337Z,99.90
2018-10-06T23:50:06.260Z,99.90
2018-10-06T23:52:35.019Z,99.90
2018-10-06T23:55:09.873Z,99.90
2018-10-06T23:57:38.613Z,99.90
